sensor_id;sensor_type;location;lat;lon;timestamp;pressure;altitude;pressure_sealevel;temperature;humidity
34103;BME280;20381;54.498;18.206;2023-08-06T00:00:52;99052.42;;;15.59;92.56
34103;BME280;20381;54.498;18.206;2023-08-06T00:03:40;99041.65;;;15.60;92.98
34103;BME280;20381;54.498;18.206;2023-08-06T00:06:09;99031.45;;;15.60;92.61
34103;BME280;20381;54.498;18.206;2023-08-06T00:08:37;99026.45;;;15.57;92.95
34103;BME280;20381;54.498;18.206;2023-08-06T00:11:06;99029.70;;;15.54;92.40
34103;BME280;20381;54.498;18.206;2023-08-06T00:13:34;99029.69;;;15.47;92.79
34103;BME280;20381;54.498;18.206;2023-08-06T00:16:12;99025.31;;;15.44;93.08
34103;BME280;20381;54.498;18.206;2023-08-06T00:18:41;99016.46;;;15.36;93.86
34103;BME280;20381;54.498;18.206;2023-08-06T00:21:10;99008.34;;;15.35;94.67
34103;BME280;20381;54.498;18.206;2023-08-06T00:23:41;99004.98;;;15.37;95.06
34103;BME280;20381;54.498;18.206;2023-08-06T00:26:09;99006.41;;;15.41;95.11
34103;BME280;20381;54.498;18.206;2023-08-06T00:28:40;98995.60;;;15.45;94.94
34103;BME280;20381;54.498;18.206;2023-08-06T00:31:09;98985.16;;;15.44;94.45
34103;BME280;20381;54.498;18.206;2023-08-06T00:33:37;98989.79;;;15.39;94.54
34103;BME280;20381;54.498;18.206;2023-08-06T00:36:06;98979.08;;;15.37;94.76
34103;BME280;20381;54.498;18.206;2023-08-06T00:38:35;98982.20;;;15.37;94.78
34103;BME280;20381;54.498;18.206;2023-08-06T00:41:04;98982.80;;;15.38;95.02
34103;BME280;20381;54.498;18.206;2023-08-06T00:43:33;98981.95;;;15.40;95.16
34103;BME280;20381;54.498;18.206;2023-08-06T00:46:01;98980.45;;;15.39;95.04
34103;BME280;20381;54.498;18.206;2023-08-06T00:48:30;98983.80;;;15.39;95.18
34103;BME280;20381;54.498;18.206;2023-08-06T00:51:01;98975.90;;;15.39;95.22
34103;BME280;20381;54.498;18.206;2023-08-06T00:53:30;98963.08;;;15.40;95.14
34103;BME280;20381;54.498;18.206;2023-08-06T00:55:59;98959.21;;;15.37;95.28
34103;BME280;20381;54.498;18.206;2023-08-06T00:58:28;98957.42;;;15.38;95.50
34103;BME280;20381;54.498;18.206;2023-08-06T01:00:56;98955.27;;;15.38;95.27
34103;BME280;20381;54.498;18.206;2023-08-06T01:03:25;98953.91;;;15.40;95.41
34103;BME280;20381;54.498;18.206;2023-08-06T01:05:54;98958.23;;;15.34;95.66
34103;BME280;20381;54.498;18.206;2023-08-06T01:08:56;98953.38;;;15.29;95.85
34103;BME280;20381;54.498;18.206;2023-08-06T01:11:44;98953.14;;;15.21;96.51
34103;BME280;20381;54.498;18.206;2023-08-06T01:14:28;98945.27;;;15.17;96.85
34103;BME280;20381;54.498;18.206;2023-08-06T01:16:58;98938.34;;;15.16;96.78
34103;BME280;20381;54.498;18.206;2023-08-06T01:19:27;98927.69;;;15.13;96.88
34103;BME280;20381;54.498;18.206;2023-08-06T01:21:56;98922.23;;;15.13;96.81
34103;BME280;20381;54.498;18.206;2023-08-06T01:24:24;98922.96;;;15.11;97.01
34103;BME280;20381;54.498;18.206;2023-08-06T01:27:13;98905.98;;;15.08;97.21
34103;BME280;20381;54.498;18.206;2023-08-06T01:32:34;98892.16;;;15.08;97.34
34103;BME280;20381;54.498;18.206;2023-08-06T01:35:04;98895.18;;;15.05;97.52
34103;BME280;20381;54.498;18.206;2023-08-06T01:37:32;98883.86;;;15.02;97.28
34103;BME280;20381;54.498;18.206;2023-08-06T01:40:14;98879.64;;;14.97;97.34
34103;BME280;20381;54.498;18.206;2023-08-06T01:42:42;98883.67;;;14.97;97.08
34103;BME280;20381;54.498;18.206;2023-08-06T01:45:11;98881.35;;;14.93;97.01
34103;BME280;20381;54.498;18.206;2023-08-06T01:47:39;98879.55;;;14.85;97.37
34103;BME280;20381;54.498;18.206;2023-08-06T01:50:10;98873.13;;;14.78;97.69
34103;BME280;20381;54.498;18.206;2023-08-06T01:52:38;98872.56;;;14.69;98.17
34103;BME280;20381;54.498;18.206;2023-08-06T01:55:14;98871.59;;;14.71;98.24
34103;BME280;20381;54.498;18.206;2023-08-06T01:57:42;98872.48;;;14.66;98.57
34103;BME280;20381;54.498;18.206;2023-08-06T02:00:11;98880.02;;;14.66;99.02
34103;BME280;20381;54.498;18.206;2023-08-06T02:02:40;98879.60;;;14.69;98.59
34103;BME280;20381;54.498;18.206;2023-08-06T02:05:09;98876.66;;;14.64;98.74
34103;BME280;20381;54.498;18.206;2023-08-06T02:07:38;98878.97;;;14.61;98.75
34103;BME280;20381;54.498;18.206;2023-08-06T02:10:07;98871.30;;;14.56;99.13
34103;BME280;20381;54.498;18.206;2023-08-06T02:12:35;98863.30;;;14.48;99.63
34103;BME280;20381;54.498;18.206;2023-08-06T02:15:04;98861.33;;;14.46;99.94
34103;BME280;20381;54.498;18.206;2023-08-06T02:17:33;98851.88;;;14.49;100.00
34103;BME280;20381;54.498;18.206;2023-08-06T02:20:02;98839.92;;;14.49;99.78
34103;BME280;20381;54.498;18.206;2023-08-06T02:22:33;98833.02;;;14.44;99.98
34103;BME280;20381;54.498;18.206;2023-08-06T02:25:06;98830.71;;;14.44;100.00
34103;BME280;20381;54.498;18.206;2023-08-06T02:27:35;98818.88;;;14.45;100.00
34103;BME280;20381;54.498;18.206;2023-08-06T02:30:04;98808.72;;;14.43;99.97
34103;BME280;20381;54.498;18.206;2023-08-06T02:32:35;98807.19;;;14.38;100.00
34103;BME280;20381;54.498;18.206;2023-08-06T02:35:04;98802.59;;;14.39;99.99
34103;BME280;20381;54.498;18.206;2023-08-06T02:37:34;98791.30;;;14.30;100.00
34103;BME280;20381;54.498;18.206;2023-08-06T02:40:05;98777.06;;;14.31;100.00
34103;BME280;20381;54.498;18.206;2023-08-06T02:42:33;98776.56;;;14.31;100.00
34103;BME280;20381;54.498;18.206;2023-08-06T02:45:05;98776.55;;;14.33;100.00
34103;BME280;20381;54.498;18.206;2023-08-06T02:47:33;98765.77;;;14.39;100.00
34103;BME280;20381;54.498;18.206;2023-08-06T02:50:02;98754.64;;;14.40;100.00
34103;BME280;20381;54.498;18.206;2023-08-06T02:52:30;98749.11;;;14.46;100.00
34103;BME280;20381;54.498;18.206;2023-08-06T02:54:59;98738.75;;;14.53;100.00
34103;BME280;20381;54.498;18.206;2023-08-06T02:57:28;98726.61;;;14.57;100.00
34103;BME280;20381;54.498;18.206;2023-08-06T02:59:57;98718.82;;;14.58;100.00
34103;BME280;20381;54.498;18.206;2023-08-06T03:02:25;98712.91;;;14.60;100.00
34103;BME280;20381;54.498;18.206;2023-08-06T03:04:54;98709.63;;;14.57;100.00
34103;BME280;20381;54.498;18.206;2023-08-06T03:07:23;98710.00;;;14.59;100.00
34103;BME280;20381;54.498;18.206;2023-08-06T03:09:51;98700.40;;;14.58;100.00
34103;BME280;20381;54.498;18.206;2023-08-06T03:12:21;98695.68;;;14.56;100.00
34103;BME280;20381;54.498;18.206;2023-08-06T03:14:52;98685.47;;;14.57;100.00
34103;BME280;20381;54.498;18.206;2023-08-06T03:17:21;98670.39;;;14.59;100.00
34103;BME280;20381;54.498;18.206;2023-08-06T03:19:49;98664.23;;;14.62;100.00
34103;BME280;20381;54.498;18.206;2023-08-06T03:22:19;98654.46;;;14.65;100.00
34103;BME280;20381;54.498;18.206;2023-08-06T03:24:50;98645.35;;;14.65;100.00
34103;BME280;20381;54.498;18.206;2023-08-06T03:27:20;98634.54;;;14.65;100.00
34103;BME280;20381;54.498;18.206;2023-08-06T03:29:49;98625.59;;;14.65;100.00
34103;BME280;20381;54.498;18.206;2023-08-06T03:32:21;98609.41;;;14.68;100.00
34103;BME280;20381;54.498;18.206;2023-08-06T03:34:49;98598.85;;;14.69;100.00
34103;BME280;20381;54.498;18.206;2023-08-06T03:37:18;98592.57;;;14.75;100.00
34103;BME280;20381;54.498;18.206;2023-08-06T03:39:46;98581.90;;;14.76;100.00
34103;BME280;20381;54.498;18.206;2023-08-06T03:42:14;98568.81;;;14.76;100.00
34103;BME280;20381;54.498;18.206;2023-08-06T03:44:52;98549.55;;;14.78;100.00
34103;BME280;20381;54.498;18.206;2023-08-06T03:47:20;98534.34;;;14.77;100.00
34103;BME280;20381;54.498;18.206;2023-08-06T03:49:48;98517.68;;;14.78;100.00
34103;BME280;20381;54.498;18.206;2023-08-06T03:52:17;98498.58;;;14.78;100.00
34103;BME280;20381;54.498;18.206;2023-08-06T03:54:46;98493.75;;;14.79;100.00
34103;BME280;20381;54.498;18.206;2023-08-06T03:57:46;98490.73;;;14.84;100.00
34103;BME280;20381;54.498;18.206;2023-08-06T04:00:15;98497.00;;;14.82;100.00
34103;BME280;20381;54.498;18.206;2023-08-06T04:02:43;98489.21;;;14.79;100.00
34103;BME280;20381;54.498;18.206;2023-08-06T04:05:13;98470.28;;;14.77;100.00
34103;BME280;20381;54.498;18.206;2023-08-06T04:07:42;98479.84;;;14.78;100.00
34103;BME280;20381;54.498;18.206;2023-08-06T04:10:20;98506.33;;;14.84;100.00
34103;BME280;20381;54.498;18.206;2023-08-06T04:13:17;98518.49;;;14.79;100.00
34103;BME280;20381;54.498;18.206;2023-08-06T04:15:46;98520.81;;;14.76;100.00
34103;BME280;20381;54.498;18.206;2023-08-06T04:18:27;98517.69;;;14.78;100.00
34103;BME280;20381;54.498;18.206;2023-08-06T04:20:55;98509.95;;;14.86;100.00
34103;BME280;20381;54.498;18.206;2023-08-06T04:23:25;98500.95;;;14.87;100.00
34103;BME280;20381;54.498;18.206;2023-08-06T04:25:59;98493.14;;;14.90;100.00
34103;BME280;20381;54.498;18.206;2023-08-06T04:28:28;98482.66;;;14.99;100.00
34103;BME280;20381;54.498;18.206;2023-08-06T04:31:03;98480.42;;;15.08;100.00
34103;BME280;20381;54.498;18.206;2023-08-06T04:33:57;98477.24;;;15.09;100.00
34103;BME280;20381;54.498;18.206;2023-08-06T04:36:25;98469.81;;;15.10;100.00
34103;BME280;20381;54.498;18.206;2023-08-06T04:38:53;98460.71;;;15.13;100.00
34103;BME280;20381;54.498;18.206;2023-08-06T04:41:22;98451.34;;;15.18;100.00
34103;BME280;20381;54.498;18.206;2023-08-06T04:43:50;98451.10;;;15.25;100.00
34103;BME280;20381;54.498;18.206;2023-08-06T04:46:27;98447.98;;;15.31;100.00
34103;BME280;20381;54.498;18.206;2023-08-06T04:48:58;98447.32;;;15.34;100.00
34103;BME280;20381;54.498;18.206;2023-08-06T04:51:27;98450.05;;;15.39;100.00
34103;BME280;20381;54.498;18.206;2023-08-06T04:53:57;98442.46;;;15.41;100.00
34103;BME280;20381;54.498;18.206;2023-08-06T04:56:33;98429.91;;;15.49;100.00
34103;BME280;20381;54.498;18.206;2023-08-06T04:59:14;98413.13;;;15.52;100.00
34103;BME280;20381;54.498;18.206;2023-08-06T05:01:43;98392.73;;;15.55;100.00
34103;BME280;20381;54.498;18.206;2023-08-06T05:04:37;98377.60;;;15.58;100.00
34103;BME280;20381;54.498;18.206;2023-08-06T05:07:06;98386.48;;;15.62;100.00
34103;BME280;20381;54.498;18.206;2023-08-06T05:09:34;98397.48;;;15.63;100.00
34103;BME280;20381;54.498;18.206;2023-08-06T05:12:04;98421.34;;;15.69;100.00
34103;BME280;20381;54.498;18.206;2023-08-06T05:14:32;98426.53;;;15.73;100.00
34103;BME280;20381;54.498;18.206;2023-08-06T05:17:02;98419.97;;;15.74;100.00
34103;BME280;20381;54.498;18.206;2023-08-06T05:19:35;98409.71;;;15.75;100.00
34103;BME280;20381;54.498;18.206;2023-08-06T05:22:04;98407.80;;;15.79;100.00
34103;BME280;20381;54.498;18.206;2023-08-06T05:24:32;98406.98;;;15.82;100.00
34103;BME280;20381;54.498;18.206;2023-08-06T05:27:04;98411.36;;;15.82;100.00
34103;BME280;20381;54.498;18.206;2023-08-06T05:29:32;98416.96;;;15.82;100.00
34103;BME280;20381;54.498;18.206;2023-08-06T05:32:01;98427.73;;;15.85;100.00
34103;BME280;20381;54.498;18.206;2023-08-06T05:34:29;98426.24;;;15.88;100.00
34103;BME280;20381;54.498;18.206;2023-08-06T05:36:58;98406.04;;;15.91;100.00
34103;BME280;20381;54.498;18.206;2023-08-06T05:39:28;98369.96;;;15.94;100.00
34103;BME280;20381;54.498;18.206;2023-08-06T05:41:56;98382.04;;;15.96;100.00
34103;BME280;20381;54.498;18.206;2023-08-06T05:44:24;98397.89;;;15.96;100.00
34103;BME280;20381;54.498;18.206;2023-08-06T05:46:53;98407.84;;;15.96;100.00
34103;BME280;20381;54.498;18.206;2023-08-06T05:49:22;98417.38;;;16.00;100.00
34103;BME280;20381;54.498;18.206;2023-08-06T05:51:50;98423.14;;;16.04;100.00
34103;BME280;20381;54.498;18.206;2023-08-06T05:54:22;98404.49;;;16.08;100.00
34103;BME280;20381;54.498;18.206;2023-08-06T05:56:50;98389.34;;;16.14;100.00
34103;BME280;20381;54.498;18.206;2023-08-06T05:59:18;98366.73;;;16.20;100.00
34103;BME280;20381;54.498;18.206;2023-08-06T06:01:47;98349.37;;;16.21;100.00
34103;BME280;20381;54.498;18.206;2023-08-06T06:04:18;98333.86;;;16.22;100.00
34103;BME280;20381;54.498;18.206;2023-08-06T06:07:20;98325.17;;;16.24;100.00
34103;BME280;20381;54.498;18.206;2023-08-06T06:09:50;98293.70;;;16.35;100.00
34103;BME280;20381;54.498;18.206;2023-08-06T06:12:22;98289.89;;;16.47;100.00
34103;BME280;20381;54.498;18.206;2023-08-06T06:14:50;98292.63;;;16.57;100.00
34103;BME280;20381;54.498;18.206;2023-08-06T06:17:18;98302.10;;;16.66;100.00
34103;BME280;20381;54.498;18.206;2023-08-06T06:19:47;98292.71;;;16.71;100.00
34103;BME280;20381;54.498;18.206;2023-08-06T06:22:26;98271.70;;;16.76;100.00
34103;BME280;20381;54.498;18.206;2023-08-06T06:24:59;98268.64;;;16.84;100.00
34103;BME280;20381;54.498;18.206;2023-08-06T06:27:40;98267.14;;;16.85;100.00
34103;BME280;20381;54.498;18.206;2023-08-06T06:30:08;98275.50;;;16.84;100.00
34103;BME280;20381;54.498;18.206;2023-08-06T06:32:37;98274.73;;;16.85;100.00
34103;BME280;20381;54.498;18.206;2023-08-06T06:35:06;98280.06;;;16.86;100.00
34103;BME280;20381;54.498;18.206;2023-08-06T06:37:43;98269.94;;;16.86;100.00
34103;BME280;20381;54.498;18.206;2023-08-06T06:40:19;98278.34;;;16.82;100.00
34103;BME280;20381;54.498;18.206;2023-08-06T06:42:51;98280.52;;;16.82;100.00
34103;BME280;20381;54.498;18.206;2023-08-06T06:45:22;98298.08;;;16.78;100.00
34103;BME280;20381;54.498;18.206;2023-08-06T06:47:51;98298.91;;;16.76;100.00
34103;BME280;20381;54.498;18.206;2023-08-06T06:50:20;98299.50;;;16.73;100.00
34103;BME280;20381;54.498;18.206;2023-08-06T06:52:48;98297.48;;;16.73;100.00
34103;BME280;20381;54.498;18.206;2023-08-06T06:55:43;98291.70;;;16.74;100.00
34103;BME280;20381;54.498;18.206;2023-08-06T06:58:12;98279.25;;;16.74;100.00
34103;BME280;20381;54.498;18.206;2023-08-06T07:00:49;98271.27;;;16.77;100.00
34103;BME280;20381;54.498;18.206;2023-08-06T07:03:19;98271.24;;;16.81;100.00
34103;BME280;20381;54.498;18.206;2023-08-06T07:05:49;98272.58;;;16.83;100.00
34103;BME280;20381;54.498;18.206;2023-08-06T07:08:35;98268.41;;;16.83;100.00
34103;BME280;20381;54.498;18.206;2023-08-06T07:11:07;98260.83;;;16.87;100.00
34103;BME280;20381;54.498;18.206;2023-08-06T07:14:36;98250.06;;;16.96;100.00
34103;BME280;20381;54.498;18.206;2023-08-06T07:17:13;98243.47;;;17.03;100.00
34103;BME280;20381;54.498;18.206;2023-08-06T07:19:41;98245.26;;;17.03;100.00
34103;BME280;20381;54.498;18.206;2023-08-06T07:22:11;98237.48;;;17.07;100.00
34103;BME280;20381;54.498;18.206;2023-08-06T07:24:45;98233.74;;;17.12;100.00
34103;BME280;20381;54.498;18.206;2023-08-06T07:27:14;98220.13;;;17.20;100.00
34103;BME280;20381;54.498;18.206;2023-08-06T07:29:44;98203.83;;;17.31;100.00
34103;BME280;20381;54.498;18.206;2023-08-06T07:33:09;98196.55;;;17.40;100.00
34103;BME280;20381;54.498;18.206;2023-08-06T07:35:50;98193.73;;;17.49;100.00
34103;BME280;20381;54.498;18.206;2023-08-06T07:39:17;98195.44;;;17.53;100.00
34103;BME280;20381;54.498;18.206;2023-08-06T07:42:11;98194.09;;;17.66;100.00
34103;BME280;20381;54.498;18.206;2023-08-06T07:44:52;98186.80;;;17.60;100.00
34103;BME280;20381;54.498;18.206;2023-08-06T07:47:23;98173.41;;;17.64;100.00
34103;BME280;20381;54.498;18.206;2023-08-06T07:49:52;98163.81;;;17.70;100.00
34103;BME280;20381;54.498;18.206;2023-08-06T07:52:30;98157.39;;;17.80;100.00
34103;BME280;20381;54.498;18.206;2023-08-06T07:54:58;98154.13;;;17.84;100.00
34103;BME280;20381;54.498;18.206;2023-08-06T07:57:28;98150.92;;;17.84;100.00
34103;BME280;20381;54.498;18.206;2023-08-06T08:00:27;98144.60;;;17.86;100.00
34103;BME280;20381;54.498;18.206;2023-08-06T08:07:24;98124.75;;;18.11;100.00
34103;BME280;20381;54.498;18.206;2023-08-06T08:10:48;98122.13;;;18.11;100.00
34103;BME280;20381;54.498;18.206;2023-08-06T08:13:49;98119.64;;;17.98;100.00
34103;BME280;20381;54.498;18.206;2023-08-06T08:16:39;98117.42;;;17.97;100.00
34103;BME280;20381;54.498;18.206;2023-08-06T08:19:13;98113.70;;;18.01;100.00
34103;BME280;20381;54.498;18.206;2023-08-06T08:21:56;98100.48;;;18.02;100.00
34103;BME280;20381;54.498;18.206;2023-08-06T08:24:41;98089.33;;;18.12;100.00
34103;BME280;20381;54.498;18.206;2023-08-06T08:28:13;98083.05;;;18.13;100.00
34103;BME280;20381;54.498;18.206;2023-08-06T08:31:10;98072.85;;;18.23;100.00
34103;BME280;20381;54.498;18.206;2023-08-06T08:33:58;98068.15;;;18.32;100.00
34103;BME280;20381;54.498;18.206;2023-08-06T08:36:36;98062.46;;;18.29;100.00
34103;BME280;20381;54.498;18.206;2023-08-06T08:39:08;98055.60;;;18.36;100.00
34103;BME280;20381;54.498;18.206;2023-08-06T08:41:39;98053.02;;;18.39;100.00
34103;BME280;20381;54.498;18.206;2023-08-06T08:44:09;98045.83;;;18.38;100.00
34103;BME280;20381;54.498;18.206;2023-08-06T08:46:43;98044.60;;;18.42;100.00
34103;BME280;20381;54.498;18.206;2023-08-06T08:49:37;98040.62;;;18.49;100.00
34103;BME280;20381;54.498;18.206;2023-08-06T08:52:15;98033.98;;;18.55;100.00
34103;BME280;20381;54.498;18.206;2023-08-06T08:55:16;98030.71;;;18.58;100.00
34103;BME280;20381;54.498;18.206;2023-08-06T08:57:50;98021.04;;;18.64;100.00
34103;BME280;20381;54.498;18.206;2023-08-06T09:00:20;98018.30;;;18.67;100.00
34103;BME280;20381;54.498;18.206;2023-08-06T09:02:49;98011.16;;;18.69;100.00
34103;BME280;20381;54.498;18.206;2023-08-06T09:05:19;98002.55;;;18.73;100.00
34103;BME280;20381;54.498;18.206;2023-08-06T09:08:02;97989.94;;;18.70;100.00
34103;BME280;20381;54.498;18.206;2023-08-06T09:10:31;97984.73;;;18.78;100.00
34103;BME280;20381;54.498;18.206;2023-08-06T09:13:07;97981.19;;;18.70;100.00
34103;BME280;20381;54.498;18.206;2023-08-06T09:15:36;97977.09;;;18.68;100.00
34103;BME280;20381;54.498;18.206;2023-08-06T09:18:10;97977.02;;;18.61;100.00
34103;BME280;20381;54.498;18.206;2023-08-06T09:20:40;97972.80;;;18.52;100.00
34103;BME280;20381;54.498;18.206;2023-08-06T09:23:09;97967.78;;;18.55;100.00
34103;BME280;20381;54.498;18.206;2023-08-06T09:25:39;97959.30;;;18.53;100.00
34103;BME280;20381;54.498;18.206;2023-08-06T09:28:10;97952.68;;;18.56;100.00
34103;BME280;20381;54.498;18.206;2023-08-06T09:30:39;97944.16;;;18.62;100.00
34103;BME280;20381;54.498;18.206;2023-08-06T09:33:08;97938.34;;;18.63;100.00
34103;BME280;20381;54.498;18.206;2023-08-06T09:35:42;97929.45;;;18.66;100.00
34103;BME280;20381;54.498;18.206;2023-08-06T09:38:14;97924.13;;;18.60;100.00
34103;BME280;20381;54.498;18.206;2023-08-06T09:40:47;97921.20;;;18.64;100.00
34103;BME280;20381;54.498;18.206;2023-08-06T09:43:19;97907.27;;;18.70;100.00
34103;BME280;20381;54.498;18.206;2023-08-06T09:45:51;97898.88;;;18.71;100.00
34103;BME280;20381;54.498;18.206;2023-08-06T09:48:27;97893.80;;;18.76;100.00
34103;BME280;20381;54.498;18.206;2023-08-06T09:50:57;97890.39;;;18.83;100.00
34103;BME280;20381;54.498;18.206;2023-08-06T09:53:51;97885.23;;;18.91;100.00
34103;BME280;20381;54.498;18.206;2023-08-06T09:57:00;97882.91;;;18.94;100.00
34103;BME280;20381;54.498;18.206;2023-08-06T09:59:57;97884.39;;;18.97;100.00
34103;BME280;20381;54.498;18.206;2023-08-06T10:02:51;97914.73;;;18.91;100.00
34103;BME280;20381;54.498;18.206;2023-08-06T10:05:40;97927.47;;;18.79;100.00
34103;BME280;20381;54.498;18.206;2023-08-06T10:08:31;97924.81;;;18.72;100.00
34103;BME280;20381;54.498;18.206;2023-08-06T10:11:10;97916.98;;;18.67;100.00
34103;BME280;20381;54.498;18.206;2023-08-06T10:13:50;97920.80;;;18.72;100.00
34103;BME280;20381;54.498;18.206;2023-08-06T10:16:34;97920.23;;;18.73;100.00
34103;BME280;20381;54.498;18.206;2023-08-06T10:19:23;97920.48;;;18.77;100.00
34103;BME280;20381;54.498;18.206;2023-08-06T10:22:25;97918.16;;;18.80;100.00
34103;BME280;20381;54.498;18.206;2023-08-06T10:25:16;97914.29;;;18.79;100.00
34103;BME280;20381;54.498;18.206;2023-08-06T10:28:34;97905.69;;;18.83;100.00
34103;BME280;20381;54.498;18.206;2023-08-06T10:32:06;97899.02;;;18.80;100.00
34103;BME280;20381;54.498;18.206;2023-08-06T10:35:36;97889.34;;;18.80;100.00
34103;BME280;20381;54.498;18.206;2023-08-06T10:38:26;97883.15;;;18.80;100.00
34103;BME280;20381;54.498;18.206;2023-08-06T10:41:05;97869.13;;;18.84;100.00
34103;BME280;20381;54.498;18.206;2023-08-06T10:43:46;97869.30;;;18.93;100.00
34103;BME280;20381;54.498;18.206;2023-08-06T10:46:30;97868.73;;;19.00;100.00
34103;BME280;20381;54.498;18.206;2023-08-06T10:48:59;97860.88;;;19.07;100.00
34103;BME280;20381;54.498;18.206;2023-08-06T10:51:32;97848.63;;;19.16;100.00
34103;BME280;20381;54.498;18.206;2023-08-06T10:54:21;97838.55;;;19.16;100.00
34103;BME280;20381;54.498;18.206;2023-08-06T10:57:11;97831.61;;;19.23;100.00
34103;BME280;20381;54.498;18.206;2023-08-06T10:59:40;97827.30;;;19.23;100.00
34103;BME280;20381;54.498;18.206;2023-08-06T11:02:11;97814.88;;;19.27;100.00
34103;BME280;20381;54.498;18.206;2023-08-06T11:04:40;97806.69;;;19.31;100.00
34103;BME280;20381;54.498;18.206;2023-08-06T11:07:09;97806.04;;;19.35;100.00
34103;BME280;20381;54.498;18.206;2023-08-06T11:09:38;97810.46;;;19.30;100.00
34103;BME280;20381;54.498;18.206;2023-08-06T11:12:18;97808.54;;;19.22;100.00
34103;BME280;20381;54.498;18.206;2023-08-06T11:15:08;97811.96;;;19.23;100.00
34103;BME280;20381;54.498;18.206;2023-08-06T11:18:02;97820.95;;;19.34;100.00
34103;BME280;20381;54.498;18.206;2023-08-06T11:20:47;97816.01;;;19.41;100.00
34103;BME280;20381;54.498;18.206;2023-08-06T11:23:37;97817.64;;;19.40;100.00
34103;BME280;20381;54.498;18.206;2023-08-06T11:26:07;97814.71;;;19.49;100.00
34103;BME280;20381;54.498;18.206;2023-08-06T11:28:41;97805.86;;;19.45;100.00
34103;BME280;20381;54.498;18.206;2023-08-06T11:31:22;97797.98;;;19.47;100.00
34103;BME280;20381;54.498;18.206;2023-08-06T11:34:24;97790.95;;;19.50;100.00
34103;BME280;20381;54.498;18.206;2023-08-06T11:37:49;97791.95;;;19.86;100.00
34103;BME280;20381;54.498;18.206;2023-08-06T11:40:18;97793.00;;;20.07;100.00
34103;BME280;20381;54.498;18.206;2023-08-06T11:42:47;97785.58;;;20.39;100.00
34103;BME280;20381;54.498;18.206;2023-08-06T11:45:24;97786.42;;;20.69;100.00
34103;BME280;20381;54.498;18.206;2023-08-06T11:47:53;97782.50;;;20.85;100.00
34103;BME280;20381;54.498;18.206;2023-08-06T11:50:24;97778.00;;;21.07;100.00
34103;BME280;20381;54.498;18.206;2023-08-06T11:52:57;97774.00;;;21.31;100.00
34103;BME280;20381;54.498;18.206;2023-08-06T11:55:28;97767.35;;;21.60;100.00
34103;BME280;20381;54.498;18.206;2023-08-06T11:57:58;97762.64;;;22.28;100.00
34103;BME280;20381;54.498;18.206;2023-08-06T12:00:28;97760.01;;;23.27;100.00
34103;BME280;20381;54.498;18.206;2023-08-06T12:02:58;97757.67;;;23.73;100.00
34103;BME280;20381;54.498;18.206;2023-08-06T12:05:45;97752.15;;;24.12;100.00
34103;BME280;20381;54.498;18.206;2023-08-06T12:08:35;97748.91;;;23.72;100.00
34103;BME280;20381;54.498;18.206;2023-08-06T12:11:07;97748.98;;;24.06;100.00
34103;BME280;20381;54.498;18.206;2023-08-06T12:13:36;97739.05;;;24.51;100.00
34103;BME280;20381;54.498;18.206;2023-08-06T12:16:05;97734.23;;;24.52;100.00
34103;BME280;20381;54.498;18.206;2023-08-06T12:18:34;97734.81;;;24.24;100.00
34103;BME280;20381;54.498;18.206;2023-08-06T12:21:13;97729.00;;;24.18;100.00
34103;BME280;20381;54.498;18.206;2023-08-06T12:23:44;97725.97;;;24.42;100.00
34103;BME280;20381;54.498;18.206;2023-08-06T12:26:23;97720.02;;;24.96;100.00
34103;BME280;20381;54.498;18.206;2023-08-06T12:29:47;97715.98;;;25.21;100.00
34103;BME280;20381;54.498;18.206;2023-08-06T12:32:19;97713.95;;;25.11;100.00
34103;BME280;20381;54.498;18.206;2023-08-06T12:34:48;97702.48;;;24.97;100.00
34103;BME280;20381;54.498;18.206;2023-08-06T12:37:24;97700.27;;;25.05;100.00
34103;BME280;20381;54.498;18.206;2023-08-06T12:39:52;97699.52;;;24.74;100.00
34103;BME280;20381;54.498;18.206;2023-08-06T12:42:21;97697.61;;;24.84;100.00
34103;BME280;20381;54.498;18.206;2023-08-06T12:44:50;97687.10;;;24.76;100.00
34103;BME280;20381;54.498;18.206;2023-08-06T12:47:19;97683.63;;;24.65;100.00
34103;BME280;20381;54.498;18.206;2023-08-06T12:49:49;97681.12;;;24.48;100.00
34103;BME280;20381;54.498;18.206;2023-08-06T12:52:18;97681.56;;;24.26;100.00
34103;BME280;20381;54.498;18.206;2023-08-06T12:54:48;97675.45;;;24.10;100.00
34103;BME280;20381;54.498;18.206;2023-08-06T12:57:16;97669.22;;;23.97;100.00
34103;BME280;20381;54.498;18.206;2023-08-06T12:59:45;97673.09;;;24.01;100.00
34103;BME280;20381;54.498;18.206;2023-08-06T13:02:14;97666.44;;;23.88;100.00
34103;BME280;20381;54.498;18.206;2023-08-06T13:04:42;97655.38;;;23.66;100.00
34103;BME280;20381;54.498;18.206;2023-08-06T13:07:11;97648.23;;;23.57;100.00
34103;BME280;20381;54.498;18.206;2023-08-06T13:09:40;97644.79;;;23.59;100.00
34103;BME280;20381;54.498;18.206;2023-08-06T13:12:09;97642.64;;;23.36;100.00
34103;BME280;20381;54.498;18.206;2023-08-06T13:14:38;97644.02;;;23.33;100.00
34103;BME280;20381;54.498;18.206;2023-08-06T13:17:07;97644.30;;;23.29;99.85
34103;BME280;20381;54.498;18.206;2023-08-06T13:19:37;97642.84;;;23.30;100.00
34103;BME280;20381;54.498;18.206;2023-08-06T13:22:10;97639.60;;;23.40;99.88
34103;BME280;20381;54.498;18.206;2023-08-06T13:24:41;97637.73;;;23.64;100.00
34103;BME280;20381;54.498;18.206;2023-08-06T13:27:13;97636.56;;;23.66;99.75
34103;BME280;20381;54.498;18.206;2023-08-06T13:29:52;97635.95;;;23.37;99.03
34103;BME280;20381;54.498;18.206;2023-08-06T13:32:22;97635.77;;;23.13;99.49